createdAt,value
2022-12-25T00:01:25.463Z,3.71
2022-12-25T00:03:52.939Z,3.61
2022-12-25T00:06:19.922Z,4.10
2022-12-25T00:08:46.762Z,4.13
2022-12-25T00:11:15.998Z,3.94
2022-12-25T00:13:43.025Z,3.73
2022-12-25T00:16:19.104Z,3.86
2022-12-25T00:18:46.311Z,3.96
2022-12-25T00:21:13.322Z,4.00
2022-12-25T00:23:40.329Z,3.96
2022-12-25T00:26:09.188Z,3.71
2022-12-25T00:28:36.111Z,3.69
2022-12-25T00:31:11.834Z,3.61
2022-12-25T00:33:40.423Z,3.51
2022-12-25T00:36:08.125Z,3.55
2022-12-25T00:38:36.242Z,3.44
2022-12-25T00:41:11.088Z,3.33
2022-12-25T00:43:38.593Z,3.54
2022-12-25T00:46:06.534Z,3.61
2022-12-25T00:48:33.936Z,3.65
2022-12-25T00:51:03.592Z,3.60
2022-12-25T00:53:30.929Z,3.79
2022-12-25T00:56:03.369Z,3.74
2022-12-25T00:58:31.959Z,3.77
2022-12-25T01:00:58.643Z,4.04
2022-12-25T01:03:25.711Z,4.18
2022-12-25T01:06:04.414Z,4.22
2022-12-25T01:08:35.659Z,4.20
2022-12-25T01:11:04.643Z,4.13
2022-12-25T01:13:32.910Z,4.36
2022-12-25T01:15:59.505Z,4.31
2022-12-25T01:18:26.797Z,4.14
2022-12-25T01:20:53.420Z,3.93
2022-12-25T01:23:19.982Z,4.04
2022-12-25T01:25:46.601Z,3.90
2022-12-25T01:28:13.472Z,3.78
2022-12-25T01:30:40.488Z,3.77
2022-12-25T01:33:07.115Z,3.94
2022-12-25T01:35:33.747Z,4.37
2022-12-25T01:38:00.500Z,4.26
2022-12-25T01:40:27.284Z,4.16
2022-12-25T01:42:53.902Z,4.30
2022-12-25T01:45:41.448Z,4.33
2022-12-25T01:48:12.365Z,4.28
2022-12-25T01:50:41.305Z,4.12
2022-12-25T01:53:08.227Z,3.98
2022-12-25T01:55:36.461Z,4.11
2022-12-25T01:58:03.674Z,3.98
2022-12-25T02:00:30.318Z,3.89
2022-12-25T02:02:57.743Z,3.88
2022-12-25T02:05:31.051Z,3.98
2022-12-25T02:08:24.063Z,4.02
2022-12-25T02:10:50.655Z,3.87
2022-12-25T02:13:18.963Z,3.81
2022-12-25T02:15:54.291Z,3.88
2022-12-25T02:18:41.084Z,3.76
2022-12-25T02:21:29.147Z,3.79
2022-12-25T02:24:10.968Z,4.09
2022-12-25T02:26:57.740Z,4.06
2022-12-25T02:29:59.953Z,4.27
2022-12-25T02:32:26.554Z,4.19
2022-12-25T02:35:03.352Z,4.17
2022-12-25T02:37:40.062Z,4.32
2022-12-25T02:40:22.750Z,4.17
2022-12-25T02:43:20.658Z,4.14
2022-12-25T02:46:12.383Z,4.12
2022-12-25T02:49:02.752Z,4.12
2022-12-25T02:51:50.428Z,4.31
2022-12-25T02:54:37.648Z,4.20
2022-12-25T02:57:25.979Z,4.11
2022-12-25T03:00:13.408Z,4.20
2022-12-25T03:03:00.692Z,4.22
2022-12-25T03:05:46.496Z,4.24
2022-12-25T03:08:21.559Z,4.59
2022-12-25T03:11:15.908Z,4.74
2022-12-25T03:13:43.507Z,4.78
2022-12-25T03:16:28.906Z,4.86
2022-12-25T03:18:57.540Z,4.91
2022-12-25T03:21:42.790Z,5.05
2022-12-25T03:24:27.996Z,4.99
2022-12-25T03:26:57.355Z,4.93
2022-12-25T03:29:49.027Z,4.91
2022-12-25T03:32:43.420Z,4.96
2022-12-25T03:35:23.163Z,5.01
2022-12-25T03:38:44.748Z,5.10
2022-12-25T03:41:55.598Z,5.09
2022-12-25T03:44:46.625Z,5.08
2022-12-25T03:47:39.530Z,5.10
2022-12-25T03:50:34.063Z,5.21
2022-12-25T03:53:22.372Z,5.32
2022-12-25T03:56:09.595Z,5.27
2022-12-25T03:58:54.811Z,5.30
2022-12-25T04:01:40.107Z,5.23
2022-12-25T04:04:25.549Z,5.24
2022-12-25T04:07:10.764Z,5.20
2022-12-25T04:09:56.035Z,5.20
2022-12-25T04:12:41.349Z,5.17
2022-12-25T04:15:27.549Z,5.24
2022-12-25T04:18:12.834Z,5.27
2022-12-25T04:20:58.256Z,5.27
2022-12-25T04:23:43.369Z,5.21
2022-12-25T04:26:28.619Z,5.22
2022-12-25T04:29:13.832Z,5.22
2022-12-25T04:31:59.247Z,5.33
2022-12-25T04:34:44.539Z,5.36
2022-12-25T04:37:11.190Z,5.34
2022-12-25T04:39:40.617Z,5.34
2022-12-25T04:42:07.225Z,5.29
2022-12-25T04:44:33.992Z,5.26
2022-12-25T04:47:03.567Z,5.40
2022-12-25T04:49:34.160Z,5.38
2022-12-25T04:52:00.778Z,5.39
2022-12-25T04:54:27.331Z,5.42
2022-12-25T04:56:53.941Z,5.50
2022-12-25T04:59:20.547Z,5.48
2022-12-25T05:01:47.375Z,5.47
2022-12-25T05:04:14.009Z,5.46
2022-12-25T05:06:40.719Z,5.52
2022-12-25T05:09:07.300Z,5.49
2022-12-25T05:11:34.045Z,5.52
2022-12-25T05:14:00.577Z,5.49
2022-12-25T05:16:27.412Z,5.50
2022-12-25T05:18:54.069Z,5.48
2022-12-25T05:21:20.790Z,5.51
2022-12-25T05:23:51.385Z,5.49
2022-12-25T05:26:22.450Z,5.51
2022-12-25T05:28:49.560Z,5.54
2022-12-25T05:31:16.484Z,5.54
2022-12-25T05:33:43.102Z,5.57
2022-12-25T05:36:11.410Z,5.53
2022-12-25T05:38:38.556Z,5.49
2022-12-25T05:41:05.395Z,5.50
2022-12-25T05:43:31.981Z,5.48
2022-12-25T05:45:58.651Z,5.50
2022-12-25T05:48:25.267Z,5.53
2022-12-25T05:50:51.870Z,5.55
2022-12-25T05:53:18.460Z,5.64
2022-12-25T05:55:45.111Z,5.62
2022-12-25T05:58:12.825Z,5.60
2022-12-25T06:00:39.857Z,5.64
2022-12-25T06:03:06.731Z,5.57
2022-12-25T06:05:33.418Z,5.52
2022-12-25T06:07:59.997Z,5.55
2022-12-25T06:10:26.676Z,5.54
2022-12-25T06:12:53.278Z,5.59
2022-12-25T06:15:19.905Z,5.67
2022-12-25T06:17:46.585Z,5.56
2022-12-25T06:20:13.252Z,5.54
2022-12-25T06:22:40.094Z,5.51
2022-12-25T06:25:08.443Z,5.54
2022-12-25T06:27:35.092Z,5.54
2022-12-25T06:30:01.800Z,5.62
2022-12-25T06:32:28.414Z,5.54
2022-12-25T06:34:55.034Z,5.57
2022-12-25T06:37:21.669Z,5.52
2022-12-25T06:39:48.265Z,5.50
2022-12-25T06:42:14.967Z,5.53
2022-12-25T06:44:41.578Z,5.45
2022-12-25T06:47:08.157Z,5.46
2022-12-25T06:49:34.748Z,5.34
2022-12-25T06:52:01.385Z,5.34
2022-12-25T06:54:28.091Z,5.32
2022-12-25T06:56:54.759Z,5.35
2022-12-25T06:59:21.724Z,5.45
2022-12-25T07:01:49.648Z,5.40
2022-12-25T07:04:22.240Z,5.47
2022-12-25T07:06:48.810Z,5.48
2022-12-25T07:09:15.423Z,5.56
2022-12-25T07:11:42.147Z,5.50
2022-12-25T07:14:23.387Z,5.59
2022-12-25T07:16:50.733Z,5.60
2022-12-25T07:19:17.462Z,5.68
2022-12-25T07:21:44.035Z,5.60
2022-12-25T07:24:11.287Z,5.68
2022-12-25T07:26:37.843Z,5.71
2022-12-25T07:29:05.575Z,5.66
2022-12-25T07:31:32.275Z,5.66
2022-12-25T07:33:58.931Z,5.64
2022-12-25T07:36:25.610Z,5.75
2022-12-25T07:38:52.292Z,5.77
2022-12-25T07:41:18.938Z,5.88
2022-12-25T07:43:45.559Z,5.86
2022-12-25T07:46:12.246Z,5.85
2022-12-25T07:48:38.933Z,5.90
2022-12-25T07:51:08.140Z,5.87
2022-12-25T07:53:35.251Z,5.88
2022-12-25T07:56:07.022Z,5.92
2022-12-25T07:58:34.436Z,5.88
2022-12-25T08:01:13.666Z,5.93
2022-12-25T08:03:40.588Z,5.93
2022-12-25T08:06:09.541Z,5.91
2022-12-25T08:08:37.056Z,5.93
2022-12-25T08:11:04.322Z,5.96
2022-12-25T08:13:31.940Z,5.96
2022-12-25T08:16:02.825Z,5.93
2022-12-25T08:18:30.593Z,5.93
2022-12-25T08:21:00.381Z,5.94
2022-12-25T08:23:26.996Z,5.90
2022-12-25T08:25:56.600Z,5.86
2022-12-25T08:28:25.430Z,5.83
2022-12-25T08:30:52.086Z,5.84
2022-12-25T08:33:18.701Z,5.86
2022-12-25T08:35:45.376Z,5.84
2022-12-25T08:38:11.910Z,5.90
2022-12-25T08:40:38.490Z,5.96
2022-12-25T08:43:05.099Z,5.94
2022-12-25T08:45:35.240Z,5.94
2022-12-25T08:48:02.175Z,5.92
2022-12-25T08:50:28.803Z,5.95
2022-12-25T08:52:55.443Z,5.91
2022-12-25T08:55:22.225Z,5.98
2022-12-25T08:57:48.792Z,6.03
2022-12-25T09:00:15.825Z,6.06
2022-12-25T09:02:42.514Z,6.07
2022-12-25T09:05:09.415Z,6.06
2022-12-25T09:07:36.005Z,6.13
2022-12-25T09:10:02.707Z,6.22
2022-12-25T09:12:29.302Z,6.31
2022-12-25T09:14:55.892Z,6.35
2022-12-25T09:17:22.597Z,6.37
2022-12-25T09:19:49.211Z,6.37
2022-12-25T09:22:15.788Z,6.44
2022-12-25T09:24:43.701Z,6.45
2022-12-25T09:27:10.499Z,6.52
2022-12-25T09:29:38.970Z,6.51
2022-12-25T09:32:06.900Z,6.53
2022-12-25T09:34:33.603Z,6.64
2022-12-25T09:37:00.182Z,6.61
2022-12-25T09:39:26.994Z,6.65
2022-12-25T09:42:04.529Z,6.73
2022-12-25T09:44:35.117Z,6.72
2022-12-25T09:47:05.934Z,6.77
2022-12-25T09:49:56.980Z,6.72
2022-12-25T09:52:37.909Z,6.67
2022-12-25T09:55:22.287Z,6.69
2022-12-25T09:57:56.338Z,6.64
2022-12-25T10:00:25.799Z,6.68
2022-12-25T10:03:11.029Z,6.73
2022-12-25T10:05:58.929Z,6.77
2022-12-25T10:08:51.475Z,6.86
2022-12-25T10:11:26.875Z,6.81
2022-12-25T10:14:18.939Z,6.83
2022-12-25T10:16:57.169Z,6.87
2022-12-25T10:19:35.384Z,6.87
2022-12-25T10:22:08.327Z,6.90
2022-12-25T10:24:38.711Z,6.92
2022-12-25T10:27:13.927Z,6.93
2022-12-25T10:29:41.649Z,6.94
2022-12-25T10:32:09.220Z,6.97
2022-12-25T10:34:37.488Z,6.98
2022-12-25T10:37:04.100Z,6.99
2022-12-25T10:39:30.758Z,6.95
2022-12-25T10:42:18.776Z,6.96
2022-12-25T10:44:59.909Z,6.94
2022-12-25T10:47:29.899Z,6.93
2022-12-25T10:49:57.089Z,6.95
2022-12-25T10:52:25.903Z,6.97
2022-12-25T10:54:52.760Z,7.02
2022-12-25T10:57:22.456Z,7.07
2022-12-25T10:59:57.089Z,7.11
2022-12-25T11:02:35.084Z,7.14
2022-12-25T11:05:10.652Z,7.15
2022-12-25T11:07:46.754Z,7.21
2022-12-25T11:10:16.414Z,7.20
2022-12-25T11:12:44.982Z,7.21
2022-12-25T11:15:32.500Z,7.24
2022-12-25T11:17:59.163Z,7.35
2022-12-25T11:20:26.079Z,7.33
2022-12-25T11:22:52.797Z,7.42
2022-12-25T11:25:27.716Z,7.47
2022-12-25T11:28:04.987Z,7.46
2022-12-25T11:30:33.478Z,7.55
2022-12-25T11:33:06.875Z,7.60
2022-12-25T11:35:50.348Z,7.58
2022-12-25T11:38:17.026Z,7.57
2022-12-25T11:40:55.965Z,7.56
2022-12-25T11:43:29.930Z,7.55
2022-12-25T11:46:06.724Z,7.59
2022-12-25T11:49:00.820Z,7.64
2022-12-25T11:51:32.399Z,7.67
2022-12-25T11:54:10.987Z,7.62
2022-12-25T11:56:37.932Z,7.60
2022-12-25T11:59:18.570Z,7.65
2022-12-25T12:01:48.228Z,7.64
2022-12-25T12:04:31.805Z,7.59
2022-12-25T12:07:05.347Z,7.62
2022-12-25T12:09:51.282Z,7.58
2022-12-25T12:12:58.870Z,7.58
2022-12-25T12:15:36.330Z,7.58
2022-12-25T12:18:22.420Z,7.62
2022-12-25T12:21:01.266Z,7.58
2022-12-25T12:23:29.577Z,7.58
2022-12-25T12:25:56.516Z,7.58
2022-12-25T12:28:26.650Z,7.61
2022-12-25T12:30:59.461Z,7.62
2022-12-25T12:33:29.710Z,7.67
2022-12-25T12:35:56.529Z,7.64
2022-12-25T12:38:23.436Z,7.63
2022-12-25T12:40:53.675Z,7.64
2022-12-25T12:43:23.311Z,7.66
2022-12-25T12:45:56.401Z,7.68
2022-12-25T12:48:26.450Z,7.68
2022-12-25T12:51:10.875Z,7.66
2022-12-25T12:53:42.752Z,7.63
2022-12-25T12:56:20.283Z,7.59
2022-12-25T12:58:50.779Z,7.62
2022-12-25T13:01:37.903Z,7.59
2022-12-25T13:04:04.505Z,7.56
2022-12-25T13:06:46.507Z,7.56
2022-12-25T13:09:22.274Z,7.60
2022-12-25T13:11:49.462Z,7.61
2022-12-25T13:14:19.599Z,7.59
2022-12-25T13:16:49.146Z,7.56
2022-12-25T13:19:24.961Z,7.55
2022-12-25T13:22:00.377Z,7.61
2022-12-25T13:24:32.614Z,7.63
2022-12-25T13:27:00.009Z,7.59
2022-12-25T13:29:33.639Z,7.57
2022-12-25T13:32:02.288Z,7.56
2022-12-25T13:34:33.010Z,7.55
2022-12-25T13:37:00.963Z,7.57
2022-12-25T13:39:28.531Z,7.55
2022-12-25T13:42:09.557Z,7.55
2022-12-25T13:44:52.271Z,7.57
2022-12-25T13:47:32.268Z,7.57
2022-12-25T13:50:01.768Z,7.52
2022-12-25T13:52:34.641Z,7.51
2022-12-25T13:55:12.287Z,7.49
2022-12-25T13:57:51.563Z,7.48
2022-12-25T14:00:32.385Z,7.48
2022-12-25T14:02:59.671Z,7.49
2022-12-25T14:05:28.503Z,7.52
2022-12-25T14:07:56.763Z,7.57
2022-12-25T14:10:25.489Z,7.63
2022-12-25T14:12:54.113Z,7.58
2022-12-25T14:15:22.568Z,7.63
2022-12-25T14:17:50.733Z,7.63
2022-12-25T14:20:27.514Z,7.55
2022-12-25T14:22:56.075Z,7.55
2022-12-25T14:25:41.936Z,7.53
2022-12-25T14:28:20.411Z,7.54
2022-12-25T14:30:47.454Z,7.52
2022-12-25T14:33:16.433Z,7.49
2022-12-25T14:35:43.432Z,7.47
2022-12-25T14:38:20.382Z,7.54
2022-12-25T14:40:47.045Z,7.49
2022-12-25T14:43:26.060Z,7.47
2022-12-25T14:45:57.667Z,7.48
2022-12-25T14:48:29.483Z,7.50
2022-12-25T14:51:02.240Z,7.52
2022-12-25T14:53:57.053Z,7.49
2022-12-25T14:56:25.786Z,7.49
2022-12-25T14:58:55.003Z,7.49
2022-12-25T15:01:36.528Z,7.54
2022-12-25T15:04:12.271Z,7.48
2022-12-25T15:06:40.585Z,7.48
2022-12-25T15:09:15.192Z,7.48
2022-12-25T15:11:41.776Z,7.48
2022-12-25T15:14:10.756Z,7.52
2022-12-25T15:16:41.898Z,7.51
2022-12-25T15:19:11.792Z,7.53
2022-12-25T15:21:41.138Z,7.50
2022-12-25T15:24:11.811Z,7.58
2022-12-25T15:26:38.705Z,7.56
2022-12-25T15:29:07.375Z,7.53
2022-12-25T15:31:36.106Z,7.53
2022-12-25T15:34:06.862Z,7.54
2022-12-25T15:36:34.208Z,7.49
2022-12-25T15:39:01.012Z,7.53
2022-12-25T15:41:47.293Z,7.54
2022-12-25T15:44:14.473Z,7.51
2022-12-25T15:46:41.717Z,7.54
2022-12-25T15:49:10.517Z,7.56
2022-12-25T15:51:37.223Z,7.53
2022-12-25T15:54:04.120Z,7.54
2022-12-25T15:56:51.236Z,7.59
2022-12-25T15:59:19.639Z,7.59
2022-12-25T16:01:49.299Z,7.57
2022-12-25T16:04:16.371Z,7.56
2022-12-25T16:06:43.141Z,7.62
2022-12-25T16:09:13.838Z,7.59
2022-12-25T16:11:40.912Z,7.61
2022-12-25T16:14:07.973Z,7.59
2022-12-25T16:16:34.718Z,7.61
2022-12-25T16:19:01.445Z,7.62
2022-12-25T16:21:36.468Z,7.67
2022-12-25T16:24:03.178Z,7.66
2022-12-25T16:26:30.635Z,7.65
2022-12-25T16:28:59.121Z,7.61
2022-12-25T16:31:27.841Z,7.63
2022-12-25T16:33:54.672Z,7.62
2022-12-25T16:36:26.795Z,7.65
2022-12-25T16:38:53.825Z,7.64
2022-12-25T16:41:20.503Z,7.64
2022-12-25T16:43:47.270Z,7.67
2022-12-25T16:46:17.393Z,7.64
2022-12-25T16:48:44.121Z,7.65
2022-12-25T16:51:16.691Z,7.63
2022-12-25T16:53:43.566Z,7.70
2022-12-25T16:56:14.795Z,7.68
2022-12-25T16:58:42.207Z,7.67
2022-12-25T17:01:11.359Z,7.66
2022-12-25T17:03:38.872Z,7.59
2022-12-25T17:06:23.152Z,7.60
2022-12-25T17:08:51.965Z,7.64
2022-12-25T17:11:23.609Z,7.58
2022-12-25T17:13:50.622Z,7.62
2022-12-25T17:16:19.832Z,7.58
2022-12-25T17:18:46.696Z,7.62
2022-12-25T17:21:15.904Z,7.66
2022-12-25T17:23:43.235Z,7.63
2022-12-25T17:26:09.864Z,7.58
2022-12-25T17:28:36.570Z,7.59
2022-12-25T17:31:08.407Z,7.58
2022-12-25T17:33:36.695Z,7.58
2022-12-25T17:36:05.380Z,7.59
2022-12-25T17:38:32.626Z,7.64
2022-12-25T17:41:00.484Z,7.66
2022-12-25T17:43:27.136Z,7.68
2022-12-25T17:45:53.788Z,7.69
2022-12-25T17:48:20.423Z,7.70
2022-12-25T17:50:47.656Z,7.68
2022-12-25T17:53:14.511Z,7.71
2022-12-25T17:55:41.329Z,7.80
2022-12-25T17:58:08.680Z,7.81
2022-12-25T18:00:36.067Z,7.96
2022-12-25T18:03:09.042Z,8.07
2022-12-25T18:05:38.013Z,8.07
2022-12-25T18:08:05.337Z,8.30
2022-12-25T18:10:38.548Z,8.35
2022-12-25T18:13:05.595Z,8.24
2022-12-25T18:15:32.483Z,8.19
2022-12-25T18:17:59.139Z,8.22
2022-12-25T18:20:25.780Z,8.35
2022-12-25T18:22:52.426Z,8.47
2022-12-25T18:25:19.103Z,8.39
2022-12-25T18:27:45.786Z,8.31
2022-12-25T18:30:14.932Z,8.29
2022-12-25T18:32:48.206Z,8.29
2022-12-25T18:35:19.193Z,8.36
2022-12-25T18:37:48.182Z,8.30
2022-12-25T18:40:14.954Z,8.41
2022-12-25T18:42:43.062Z,8.53
2022-12-25T18:45:12.639Z,8.52
2022-12-25T18:47:39.446Z,8.48
2022-12-25T18:50:07.399Z,8.44
2022-12-25T18:52:49.507Z,8.40
2022-12-25T18:55:18.048Z,8.28
2022-12-25T18:57:44.769Z,8.26
2022-12-25T19:00:11.761Z,8.34
2022-12-25T19:02:38.646Z,8.45
2022-12-25T19:05:06.039Z,8.52
2022-12-25T19:07:32.757Z,8.42
2022-12-25T19:09:59.349Z,8.35
2022-12-25T19:12:26.007Z,8.26
2022-12-25T19:14:53.009Z,8.23
2022-12-25T19:17:19.739Z,8.15
2022-12-25T19:19:46.505Z,8.13
2022-12-25T19:22:13.249Z,8.30
2022-12-25T19:24:39.989Z,8.32
2022-12-25T19:27:07.027Z,8.31
2022-12-25T19:29:34.093Z,8.23
2022-12-25T19:32:00.875Z,8.30
2022-12-25T19:34:32.091Z,8.28
2022-12-25T19:36:58.834Z,8.33
2022-12-25T19:39:25.421Z,8.41
2022-12-25T19:41:52.040Z,8.61
2022-12-25T19:44:19.467Z,8.62
2022-12-25T19:46:46.175Z,8.52
2022-12-25T19:49:13.678Z,8.57
2022-12-25T19:51:42.677Z,8.58
2022-12-25T19:54:14.653Z,8.60
2022-12-25T19:56:41.871Z,8.59
2022-12-25T19:59:08.975Z,8.73
2022-12-25T20:01:35.730Z,8.71
2022-12-25T20:04:02.489Z,8.88
2022-12-25T20:06:31.307Z,8.80
2022-12-25T20:09:04.314Z,8.72
2022-12-25T20:11:32.531Z,8.64
2022-12-25T20:13:59.476Z,8.60
2022-12-25T20:16:26.191Z,8.64
2022-12-25T20:18:55.115Z,8.71
2022-12-25T20:21:22.821Z,8.69
2022-12-25T20:23:51.934Z,8.62
2022-12-25T20:26:20.443Z,8.76
2022-12-25T20:28:47.298Z,8.75
2022-12-25T20:31:18.440Z,8.79
2022-12-25T20:33:45.058Z,8.75
2022-12-25T20:36:12.338Z,8.80
2022-12-25T20:38:39.305Z,8.73
2022-12-25T20:43:54.170Z,8.81
2022-12-25T20:46:22.315Z,8.84
2022-12-25T20:48:49.122Z,8.83
2022-12-25T20:51:18.364Z,8.89
2022-12-25T20:53:45.684Z,8.83
2022-12-25T20:56:13.740Z,8.97
2022-12-25T20:58:40.582Z,8.83
2022-12-25T21:01:10.254Z,9.00
2022-12-25T21:03:37.332Z,8.91
2022-12-25T21:06:04.235Z,8.91
2022-12-25T21:08:31.300Z,8.84
2022-12-25T21:11:01.843Z,8.80
2022-12-25T21:13:31.470Z,8.77
2022-12-25T21:15:58.827Z,8.82
2022-12-25T21:18:27.225Z,8.75
2022-12-25T21:20:58.618Z,8.74
2022-12-25T21:23:28.556Z,8.86
2022-12-25T21:25:55.206Z,8.77
2022-12-25T21:28:23.341Z,8.97
2022-12-25T21:30:50.252Z,8.93
2022-12-25T21:33:35.305Z,8.91
2022-12-25T21:36:11.018Z,8.89
2022-12-25T21:38:38.333Z,8.88
2022-12-25T21:41:06.963Z,9.00
2022-12-25T21:43:34.883Z,8.92
2022-12-25T21:46:09.418Z,8.99
2022-12-25T21:48:37.136Z,9.10
2022-12-25T21:51:25.059Z,9.02
2022-12-25T21:53:51.715Z,9.15
2022-12-25T21:56:18.495Z,8.96
2022-12-25T21:58:45.170Z,8.94
2022-12-25T22:01:11.980Z,8.93
2022-12-25T22:03:38.777Z,9.02
2022-12-25T22:06:24.590Z,9.03
2022-12-25T22:08:51.180Z,9.07
2022-12-25T22:11:36.333Z,9.00
2022-12-25T22:14:52.685Z,8.93
2022-12-25T22:17:28.248Z,9.13
2022-12-25T22:19:55.801Z,9.06
2022-12-25T22:22:28.363Z,9.04
2022-12-25T22:24:59.827Z,8.98
2022-12-25T22:27:31.028Z,9.02
2022-12-25T22:29:57.694Z,8.94
2022-12-25T22:32:26.565Z,8.93
2022-12-25T22:34:53.214Z,8.95
2022-12-25T22:37:19.854Z,8.94
2022-12-25T22:39:46.472Z,8.96
2022-12-25T22:42:13.666Z,9.04
2022-12-25T22:44:40.292Z,8.96
2022-12-25T22:47:06.913Z,8.97
2022-12-25T22:49:33.718Z,8.99
2022-12-25T22:52:00.516Z,8.95
2022-12-25T22:54:31.014Z,8.96
2022-12-25T22:56:58.091Z,8.93
2022-12-25T22:59:24.979Z,8.92
2022-12-25T23:01:51.868Z,8.96
2022-12-25T23:04:18.595Z,8.89
2022-12-25T23:06:46.457Z,8.92
2022-12-25T23:09:22.104Z,8.91
2022-12-25T23:11:50.976Z,9.06
2022-12-25T23:14:36.123Z,8.96
2022-12-25T23:17:03.370Z,8.90
2022-12-25T23:19:48.842Z,8.88
2022-12-25T23:22:34.242Z,8.82
2022-12-25T23:25:19.467Z,8.85
2022-12-25T23:27:46.068Z,8.91
2022-12-25T23:30:15.155Z,8.87
2022-12-25T23:32:42.695Z,8.89
2022-12-25T23:35:09.658Z,8.93
2022-12-25T23:37:36.222Z,8.88
2022-12-25T23:40:03.197Z,8.87
2022-12-25T23:42:29.910Z,9.04
2022-12-25T23:44:56.536Z,8.93
2022-12-25T23:47:23.243Z,8.97
2022-12-25T23:49:49.834Z,8.90
2022-12-25T23:52:16.430Z,8.92
2022-12-25T23:54:44.272Z,8.99
2022-12-25T23:57:11.977Z,8.97
2022-12-25T23:59:39.266Z,8.94
